createdAt,value
2023-05-05T00:02:12.264Z,86.30
2023-05-05T00:04:38.821Z,87.14
2023-05-05T00:07:05.294Z,86.98
2023-05-05T00:09:31.804Z,87.73
2023-05-05T00:11:58.290Z,88.06
2023-05-05T00:14:24.824Z,87.89
2023-05-05T00:16:51.379Z,87.57
2023-05-05T00:19:17.870Z,88.15
2023-05-05T00:21:44.327Z,88.32
2023-05-05T00:24:11.116Z,89.10
2023-05-05T00:26:37.650Z,89.19
2023-05-05T00:29:04.185Z,89.39
2023-05-05T00:31:30.683Z,91.58
2023-05-05T00:33:57.233Z,92.62
2023-05-05T00:36:23.749Z,91.97
2023-05-05T00:38:50.253Z,91.44
2023-05-05T00:41:16.702Z,91.16
2023-05-05T00:43:43.265Z,90.81
2023-05-05T00:46:22.332Z,90.90
2023-05-05T00:48:48.958Z,91.19
2023-05-05T00:51:16.855Z,91.76
2023-05-05T00:53:45.138Z,91.83
2023-05-05T00:56:12.889Z,91.58
2023-05-05T00:58:42.339Z,91.35
2023-05-05T01:01:09.398Z,91.45
2023-05-05T01:03:38.056Z,90.75
2023-05-05T01:06:22.566Z,89.54
2023-05-05T01:09:08.184Z,89.06
2023-05-05T01:11:34.599Z,88.49
2023-05-05T01:14:16.664Z,89.12
2023-05-05T01:16:55.986Z,89.54
2023-05-05T01:19:49.708Z,90.31
2023-05-05T01:22:19.970Z,91.45
2023-05-05T01:25:05.406Z,91.70
2023-05-05T01:28:03.035Z,91.07
2023-05-05T01:30:57.527Z,90.71
2023-05-05T01:33:28.776Z,90.03
2023-05-05T01:35:58.258Z,89.15
2023-05-05T01:38:36.454Z,89.88
2023-05-05T01:41:17.049Z,88.54
2023-05-05T01:43:47.039Z,88.56
2023-05-05T01:46:15.885Z,88.75
2023-05-05T01:48:44.096Z,89.19
2023-05-05T01:51:12.636Z,89.26
2023-05-05T01:53:42.591Z,90.06
2023-05-05T01:56:10.641Z,89.83
2023-05-05T01:58:38.137Z,89.72
2023-05-05T02:01:05.339Z,89.21
2023-05-05T02:03:34.014Z,88.79
2023-05-05T02:06:01.630Z,88.96
2023-05-05T02:08:30.010Z,89.30
2023-05-05T02:10:57.674Z,89.70
2023-05-05T02:13:26.102Z,90.71
2023-05-05T02:15:53.344Z,90.71
2023-05-05T02:18:22.252Z,90.68
2023-05-05T02:20:48.873Z,90.21
2023-05-05T02:23:15.477Z,89.48
2023-05-05T02:25:45.738Z,90.66
2023-05-05T02:28:18.439Z,91.22
2023-05-05T02:30:59.389Z,91.40
2023-05-05T02:33:29.063Z,91.80
2023-05-05T02:36:00.043Z,92.28
2023-05-05T02:38:29.331Z,92.13
2023-05-05T02:40:57.985Z,90.95
2023-05-05T02:43:25.889Z,92.25
2023-05-05T02:45:52.378Z,93.99
2023-05-05T02:48:18.927Z,93.44
2023-05-05T02:50:45.401Z,93.42
2023-05-05T02:53:12.307Z,92.82
2023-05-05T02:55:45.515Z,91.83
2023-05-05T02:58:24.840Z,92.22
2023-05-05T03:01:18.004Z,93.15
2023-05-05T03:03:46.893Z,92.99
2023-05-05T03:06:21.296Z,93.02
2023-05-05T03:08:58.062Z,92.80
2023-05-05T03:11:35.512Z,93.04
2023-05-05T03:14:10.088Z,93.82
2023-05-05T03:16:39.442Z,94.35
2023-05-05T03:19:08.569Z,94.84
2023-05-05T03:21:35.487Z,95.09
2023-05-05T03:24:12.242Z,95.80
2023-05-05T03:26:38.687Z,95.57
2023-05-05T03:29:06.865Z,95.71
2023-05-05T03:31:33.537Z,95.57
2023-05-05T03:34:00.279Z,96.22
2023-05-05T03:36:29.413Z,97.21
2023-05-05T03:38:56.196Z,97.87
2023-05-05T03:41:23.629Z,98.38
2023-05-05T03:43:50.910Z,98.83
2023-05-05T03:46:17.494Z,98.12
2023-05-05T03:48:44.054Z,97.58
2023-05-05T03:51:10.621Z,97.69
2023-05-05T03:53:37.047Z,97.51
2023-05-05T03:56:03.698Z,98.09
2023-05-05T03:58:30.951Z,99.19
2023-05-05T04:00:57.485Z,99.88
2023-05-05T04:03:25.477Z,100.00
2023-05-05T04:05:52.130Z,99.98
2023-05-05T04:08:18.585Z,99.74
2023-05-05T04:10:48.974Z,99.55
2023-05-05T04:13:15.565Z,99.58
2023-05-05T04:15:48.304Z,99.70
2023-05-05T04:18:14.775Z,99.00
2023-05-05T04:20:41.329Z,98.95
2023-05-05T04:23:07.975Z,98.98
2023-05-05T04:25:34.530Z,99.01
2023-05-05T04:28:01.109Z,99.75
2023-05-05T04:30:27.628Z,99.56
2023-05-05T04:32:54.125Z,99.88
2023-05-05T04:35:21.227Z,99.84
2023-05-05T04:37:47.775Z,99.49
2023-05-05T04:40:14.414Z,99.86
2023-05-05T04:42:40.891Z,100.00
2023-05-05T04:45:08.876Z,100.00
2023-05-05T04:47:39.523Z,100.00
2023-05-05T04:50:07.226Z,100.00
2023-05-05T04:52:34.155Z,100.00
2023-05-05T04:55:01.137Z,100.00
2023-05-05T04:57:27.851Z,100.00
2023-05-05T04:59:54.366Z,100.00
2023-05-05T05:02:21.035Z,100.00
2023-05-05T05:04:47.536Z,100.00
2023-05-05T05:07:15.085Z,99.86
2023-05-05T05:09:41.620Z,98.87
2023-05-05T05:12:09.694Z,98.37
2023-05-05T05:14:43.296Z,97.72
2023-05-05T05:17:09.929Z,97.36
2023-05-05T05:19:36.397Z,95.75
2023-05-05T05:22:02.914Z,95.52
2023-05-05T05:24:29.952Z,95.81
2023-05-05T05:26:56.474Z,95.19
2023-05-05T05:29:23.012Z,94.22
2023-05-05T05:31:50.165Z,93.57
2023-05-05T05:34:16.756Z,93.44
2023-05-05T05:36:43.234Z,92.52
2023-05-05T05:39:09.729Z,91.58
2023-05-05T05:41:36.219Z,91.23
2023-05-05T05:44:05.580Z,90.56
2023-05-05T05:46:32.133Z,91.86
2023-05-05T05:48:58.612Z,91.66
2023-05-05T05:51:25.101Z,91.65
2023-05-05T05:53:51.803Z,92.53
2023-05-05T05:56:18.387Z,92.84
2023-05-05T05:58:45.280Z,92.41
2023-05-05T06:01:12.134Z,92.95
2023-05-05T06:03:38.694Z,93.25
2023-05-05T06:06:05.308Z,92.90
2023-05-05T06:08:31.918Z,91.58
2023-05-05T06:11:00.411Z,91.57
2023-05-05T06:13:26.923Z,91.34
2023-05-05T06:15:53.493Z,91.28
2023-05-05T06:18:20.232Z,91.18
2023-05-05T06:20:49.486Z,89.60
2023-05-05T06:23:16.035Z,89.92
2023-05-05T06:25:42.534Z,88.87
2023-05-05T06:28:09.105Z,88.97
2023-05-05T06:30:35.569Z,90.12
2023-05-05T06:33:02.201Z,90.34
2023-05-05T06:35:30.264Z,90.62
2023-05-05T06:37:56.734Z,91.89
2023-05-05T06:40:23.331Z,91.28
2023-05-05T06:42:49.808Z,90.06
2023-05-05T06:45:16.601Z,90.00
2023-05-05T06:47:44.238Z,89.70
2023-05-05T06:50:11.336Z,89.56
2023-05-05T06:52:37.966Z,89.54
2023-05-05T06:55:04.743Z,89.48
2023-05-05T06:57:31.258Z,89.16
2023-05-05T06:59:57.850Z,89.53
2023-05-05T07:02:26.711Z,89.20
2023-05-05T07:04:55.298Z,87.97
2023-05-05T07:07:21.910Z,86.80
2023-05-05T07:09:48.338Z,86.79
2023-05-05T07:12:14.809Z,87.27
2023-05-05T07:14:41.281Z,87.20
2023-05-05T07:17:07.719Z,86.35
2023-05-05T07:19:34.197Z,86.63
2023-05-05T07:22:00.688Z,86.86
2023-05-05T07:24:27.172Z,85.85
2023-05-05T07:26:53.685Z,86.12
2023-05-05T07:29:20.234Z,85.76
2023-05-05T07:31:46.872Z,86.28
2023-05-05T07:34:16.159Z,86.60
2023-05-05T07:36:42.725Z,86.46
2023-05-05T07:39:09.288Z,86.33
2023-05-05T07:41:35.780Z,84.84
2023-05-05T07:44:02.357Z,83.13
2023-05-05T07:46:28.928Z,83.60
2023-05-05T07:48:55.588Z,83.16
2023-05-05T07:51:22.142Z,83.59
2023-05-05T07:53:48.665Z,83.65
2023-05-05T07:56:15.183Z,83.96
2023-05-05T07:58:42.240Z,82.96
2023-05-05T08:01:10.969Z,81.67
2023-05-05T08:03:37.862Z,80.95
2023-05-05T08:06:09.702Z,80.05
2023-05-05T08:08:36.816Z,81.05
2023-05-05T08:11:04.001Z,82.15
2023-05-05T08:13:30.755Z,82.15
2023-05-05T08:15:57.412Z,80.98
2023-05-05T08:18:24.554Z,79.27
2023-05-05T08:20:51.246Z,80.04
2023-05-05T08:23:17.810Z,80.19
2023-05-05T08:25:44.465Z,79.26
2023-05-05T08:28:11.357Z,78.99
2023-05-05T08:30:38.310Z,78.63
2023-05-05T08:33:04.784Z,80.03
2023-05-05T08:35:31.325Z,78.58
2023-05-05T08:37:59.290Z,77.81
2023-05-05T08:40:32.262Z,77.85
2023-05-05T08:42:59.230Z,79.02
2023-05-05T08:45:28.089Z,77.84
2023-05-05T08:48:01.156Z,77.68
2023-05-05T08:50:29.651Z,80.13
2023-05-05T08:53:10.967Z,79.94
2023-05-05T08:55:56.074Z,80.03
2023-05-05T08:58:29.130Z,81.85
2023-05-05T09:00:56.497Z,82.31
2023-05-05T09:03:24.842Z,82.35
2023-05-05T09:05:51.837Z,81.51
2023-05-05T09:08:18.689Z,81.03
2023-05-05T09:10:46.108Z,83.36
2023-05-05T09:13:13.187Z,82.54
2023-05-05T09:15:41.328Z,82.82
2023-05-05T09:18:12.316Z,81.73
2023-05-05T09:20:40.032Z,83.05
2023-05-05T09:23:17.569Z,83.26
2023-05-05T09:25:46.378Z,82.24
2023-05-05T09:28:17.673Z,82.85
2023-05-05T09:30:46.039Z,78.74
2023-05-05T09:33:13.540Z,79.67
2023-05-05T09:35:50.775Z,79.88
2023-05-05T09:38:18.651Z,79.90
2023-05-05T09:40:47.718Z,80.20
2023-05-05T09:43:15.244Z,77.22
2023-05-05T09:45:41.908Z,74.82
2023-05-05T09:48:22.764Z,77.81
2023-05-05T09:50:49.564Z,77.30
2023-05-05T09:53:16.126Z,78.21
2023-05-05T09:55:52.979Z,78.61
2023-05-05T09:58:20.721Z,78.20
2023-05-05T10:00:47.674Z,78.82
2023-05-05T10:03:14.525Z,79.99
2023-05-05T10:05:51.966Z,80.69
2023-05-05T10:08:24.508Z,77.44
2023-05-05T10:11:01.431Z,79.62
2023-05-05T10:13:28.108Z,79.54
2023-05-05T10:15:56.690Z,78.17
2023-05-05T10:18:28.528Z,78.08
2023-05-05T10:20:54.950Z,78.96
2023-05-05T10:23:23.947Z,79.38
2023-05-05T10:25:55.203Z,80.16
2023-05-05T10:28:32.993Z,79.84
2023-05-05T10:31:07.641Z,78.40
2023-05-05T10:33:47.784Z,79.28
2023-05-05T10:36:14.940Z,78.91
2023-05-05T10:38:42.976Z,78.95
2023-05-05T10:41:11.568Z,79.77
2023-05-05T10:43:38.586Z,80.58
2023-05-05T10:46:06.249Z,81.38
2023-05-05T10:48:46.088Z,82.45
2023-05-05T10:51:39.261Z,87.16
2023-05-05T10:54:50.427Z,88.70
2023-05-05T10:57:22.322Z,92.26
2023-05-05T10:59:48.741Z,92.80
2023-05-05T11:02:22.100Z,96.62
2023-05-05T11:05:09.314Z,96.49
2023-05-05T11:07:36.763Z,98.11
2023-05-05T11:10:05.665Z,96.61
2023-05-05T11:12:53.289Z,97.58
2023-05-05T11:15:26.036Z,96.51
2023-05-05T11:17:53.643Z,96.91
2023-05-05T11:20:35.905Z,94.95
2023-05-05T11:23:02.361Z,95.79
2023-05-05T11:25:34.673Z,92.13
2023-05-05T11:28:11.191Z,93.26
2023-05-05T11:30:59.366Z,92.79
2023-05-05T11:33:26.378Z,94.36
2023-05-05T11:36:06.144Z,93.89
2023-05-05T11:38:36.065Z,92.55
2023-05-05T11:41:14.431Z,91.58
2023-05-05T11:43:41.793Z,91.76
2023-05-05T11:46:16.142Z,93.05
2023-05-05T11:48:49.949Z,92.86
2023-05-05T11:51:18.099Z,93.11
2023-05-05T11:53:47.275Z,93.42
2023-05-05T11:56:18.962Z,94.08
2023-05-05T11:58:46.769Z,95.80
2023-05-05T12:01:13.598Z,97.87
2023-05-05T12:03:41.116Z,98.47
2023-05-05T12:06:08.600Z,98.66
2023-05-05T12:08:39.306Z,98.74
2023-05-05T12:11:07.692Z,99.94
2023-05-05T12:13:34.825Z,100.00
2023-05-05T12:16:16.586Z,100.00
2023-05-05T12:18:43.189Z,99.62
2023-05-05T12:21:20.125Z,99.26
2023-05-05T12:23:46.962Z,98.29
2023-05-05T12:26:29.679Z,96.03
2023-05-05T12:28:57.572Z,96.55
2023-05-05T12:31:40.349Z,95.74
2023-05-05T12:34:08.988Z,95.68
2023-05-05T12:36:36.635Z,96.00
2023-05-05T12:39:05.035Z,95.05
2023-05-05T12:41:32.339Z,95.25
2023-05-05T12:44:00.105Z,94.92
2023-05-05T12:46:29.574Z,94.49
2023-05-05T12:49:06.738Z,94.33
2023-05-05T12:51:34.671Z,92.40
2023-05-05T12:54:11.730Z,92.18
2023-05-05T12:56:43.992Z,92.64
2023-05-05T12:59:12.637Z,90.36
2023-05-05T13:01:50.912Z,90.88
2023-05-05T13:04:19.369Z,89.55
2023-05-05T13:06:51.744Z,90.87
2023-05-05T13:09:28.222Z,90.05
2023-05-05T13:11:54.831Z,90.23
2023-05-05T13:14:21.655Z,88.69
2023-05-05T13:16:48.499Z,86.52
2023-05-05T13:19:15.347Z,86.56
2023-05-05T13:21:41.900Z,86.19
2023-05-05T13:24:23.482Z,87.42
2023-05-05T13:26:55.854Z,89.11
2023-05-05T13:29:24.251Z,89.31
2023-05-05T13:31:52.692Z,86.30
2023-05-05T13:34:19.235Z,86.75
2023-05-05T13:36:45.899Z,83.82
2023-05-05T13:39:12.726Z,82.72
2023-05-05T13:41:39.402Z,78.95
2023-05-05T13:44:05.952Z,79.77
2023-05-05T13:46:32.653Z,79.52
2023-05-05T13:48:59.207Z,79.64
2023-05-05T13:51:28.491Z,79.81
2023-05-05T13:53:55.123Z,80.19
2023-05-05T13:56:27.524Z,81.08
2023-05-05T13:58:54.423Z,79.25
2023-05-05T14:01:21.105Z,78.93
2023-05-05T14:03:47.654Z,80.68
2023-05-05T14:06:14.105Z,81.41
2023-05-05T14:08:40.580Z,80.38
2023-05-05T14:11:07.023Z,80.93
2023-05-05T14:13:33.488Z,81.34
2023-05-05T14:15:59.952Z,81.89
2023-05-05T14:18:26.879Z,81.82
2023-05-05T14:20:53.449Z,82.17
2023-05-05T14:23:19.934Z,80.53
2023-05-05T14:25:46.504Z,81.96
2023-05-05T14:28:12.977Z,82.37
2023-05-05T14:30:39.903Z,83.20
2023-05-05T14:33:06.875Z,82.40
2023-05-05T14:35:33.430Z,83.68
2023-05-05T14:37:59.895Z,85.20
2023-05-05T14:40:26.417Z,87.27
2023-05-05T14:42:52.928Z,88.10
2023-05-05T14:45:19.441Z,87.44
2023-05-05T14:47:45.992Z,89.15
2023-05-05T14:50:14.037Z,86.18
2023-05-05T14:52:40.929Z,85.55
2023-05-05T14:55:08.111Z,88.26
2023-05-05T14:57:34.771Z,89.06
2023-05-05T15:00:01.446Z,86.30
2023-05-05T15:02:27.991Z,84.10
2023-05-05T15:04:54.534Z,83.11
2023-05-05T15:07:22.552Z,81.42
2023-05-05T15:09:49.122Z,82.03
2023-05-05T15:12:15.689Z,84.55
2023-05-05T15:14:42.216Z,85.73
2023-05-05T15:17:08.716Z,84.38
2023-05-05T15:19:35.218Z,84.84
2023-05-05T15:22:01.777Z,81.83
2023-05-05T15:24:28.281Z,81.77
2023-05-05T15:26:54.780Z,83.80
2023-05-05T15:29:21.495Z,84.71
2023-05-05T15:31:48.032Z,85.05
2023-05-05T15:34:14.502Z,84.03
2023-05-05T15:36:40.955Z,84.27
2023-05-05T15:39:07.565Z,83.32
2023-05-05T15:41:34.488Z,83.68
2023-05-05T15:44:03.077Z,84.23
2023-05-05T15:46:33.369Z,84.47
2023-05-05T15:49:00.309Z,86.12
2023-05-05T15:51:27.288Z,86.64
2023-05-05T15:53:53.832Z,87.36
2023-05-05T15:56:20.372Z,87.64
2023-05-05T15:58:46.865Z,89.77
2023-05-05T16:01:13.337Z,90.01
2023-05-05T16:03:39.939Z,90.96
2023-05-05T16:06:06.838Z,91.87
2023-05-05T16:08:33.339Z,90.72
2023-05-05T16:10:59.815Z,91.07
2023-05-05T16:13:26.670Z,91.59
2023-05-05T16:15:53.143Z,92.42
2023-05-05T16:18:19.642Z,92.40
2023-05-05T16:20:48.090Z,93.83
2023-05-05T16:23:14.601Z,94.47
2023-05-05T16:25:41.074Z,94.02
2023-05-05T16:28:07.512Z,94.36
2023-05-05T16:30:34.027Z,94.98
2023-05-05T16:33:00.570Z,94.35
2023-05-05T16:35:27.138Z,93.62
2023-05-05T16:37:53.687Z,94.72
2023-05-05T16:40:20.147Z,95.68
2023-05-05T16:42:46.655Z,97.79
2023-05-05T16:45:13.190Z,99.80
2023-05-05T16:47:39.798Z,100.00
2023-05-05T16:50:07.058Z,100.00
2023-05-05T16:52:33.622Z,100.00
2023-05-05T16:55:00.112Z,100.00
2023-05-05T16:57:26.957Z,100.00
2023-05-05T16:59:56.037Z,100.00
2023-05-05T17:02:22.751Z,100.00
2023-05-05T17:04:49.267Z,100.00
2023-05-05T17:07:15.771Z,100.00
2023-05-05T17:09:42.266Z,100.00
2023-05-05T17:12:08.809Z,100.00
2023-05-05T17:14:35.502Z,100.00
2023-05-05T17:17:02.048Z,100.00
2023-05-05T17:19:28.888Z,100.00
2023-05-05T17:21:55.676Z,100.00
2023-05-05T17:24:22.706Z,100.00
2023-05-05T17:26:49.281Z,100.00
2023-05-05T17:29:19.774Z,100.00
2023-05-05T17:31:46.640Z,100.00
2023-05-05T17:34:16.423Z,100.00
2023-05-05T17:36:42.903Z,100.00
2023-05-05T17:39:11.306Z,100.00
2023-05-05T17:41:37.822Z,100.00
2023-05-05T17:44:07.048Z,100.00
2023-05-05T17:46:33.535Z,100.00
2023-05-05T17:49:00.501Z,100.00
2023-05-05T17:51:28.253Z,100.00
2023-05-05T17:53:54.736Z,100.00
2023-05-05T17:56:22.112Z,100.00
2023-05-05T17:58:48.896Z,100.00
2023-05-05T18:01:26.024Z,100.00
2023-05-05T18:03:52.896Z,100.00
2023-05-05T18:06:19.460Z,100.00
2023-05-05T18:08:46.548Z,100.00
2023-05-05T18:11:13.076Z,100.00
2023-05-05T18:13:39.636Z,100.00
2023-05-05T18:16:06.682Z,100.00
2023-05-05T18:18:33.334Z,100.00
2023-05-05T18:21:00.179Z,100.00
2023-05-05T18:23:26.756Z,100.00
2023-05-05T18:25:53.249Z,100.00
2023-05-05T18:28:20.318Z,100.00
2023-05-05T18:30:49.696Z,100.00
2023-05-05T18:33:16.231Z,100.00
2023-05-05T18:35:42.736Z,100.00
2023-05-05T18:38:09.277Z,100.00
2023-05-05T18:40:39.585Z,100.00
2023-05-05T18:43:06.110Z,100.00
2023-05-05T18:45:32.605Z,100.00
2023-05-05T18:47:59.645Z,100.00
2023-05-05T18:50:26.105Z,100.00
2023-05-05T18:52:52.613Z,100.00
2023-05-05T18:55:19.141Z,100.00
2023-05-05T18:57:45.834Z,100.00
2023-05-05T19:00:12.637Z,100.00
2023-05-05T19:02:39.170Z,100.00
2023-05-05T19:05:06.421Z,100.00
2023-05-05T19:07:35.741Z,100.00
2023-05-05T19:10:04.326Z,100.00
2023-05-05T19:12:30.878Z,100.00
2023-05-05T19:14:57.439Z,100.00
2023-05-05T19:17:23.953Z,100.00
2023-05-05T19:19:50.681Z,100.00
2023-05-05T19:22:21.773Z,100.00
2023-05-05T19:24:48.248Z,100.00
2023-05-05T19:27:16.811Z,100.00
2023-05-05T19:29:43.910Z,100.00
2023-05-05T19:32:10.648Z,100.00
2023-05-05T19:34:37.320Z,100.00
2023-05-05T19:37:03.854Z,100.00
2023-05-05T19:39:30.296Z,100.00
2023-05-05T19:41:57.280Z,100.00
2023-05-05T19:44:23.870Z,100.00
2023-05-05T19:46:50.600Z,100.00
2023-05-05T19:49:17.074Z,100.00
2023-05-05T19:51:43.808Z,100.00
2023-05-05T19:54:10.362Z,100.00
2023-05-05T19:56:36.945Z,100.00
2023-05-05T19:59:05.280Z,100.00
2023-05-05T20:01:33.074Z,100.00
2023-05-05T20:04:02.572Z,100.00
2023-05-05T20:06:30.329Z,100.00
2023-05-05T20:08:56.788Z,100.00
2023-05-05T20:11:24.690Z,100.00
2023-05-05T20:13:51.746Z,100.00
2023-05-05T20:16:18.432Z,100.00
2023-05-05T20:18:45.282Z,100.00
2023-05-05T20:21:17.864Z,100.00
2023-05-05T20:23:45.869Z,100.00
2023-05-05T20:26:13.229Z,100.00
2023-05-05T20:28:41.879Z,100.00
2023-05-05T20:31:10.763Z,100.00
2023-05-05T20:33:40.554Z,100.00
2023-05-05T20:36:07.363Z,100.00
2023-05-05T20:38:33.908Z,100.00
2023-05-05T20:41:00.366Z,100.00
2023-05-05T20:43:26.969Z,100.00
2023-05-05T20:45:53.513Z,100.00
2023-05-05T20:48:19.957Z,100.00
2023-05-05T20:50:51.128Z,100.00
2023-05-05T20:53:19.124Z,100.00
2023-05-05T20:55:45.909Z,100.00
2023-05-05T20:58:12.645Z,100.00
2023-05-05T21:00:39.292Z,100.00
2023-05-05T21:03:05.977Z,100.00
2023-05-05T21:05:32.608Z,100.00
2023-05-05T21:08:00.799Z,100.00
2023-05-05T21:10:29.163Z,100.00
2023-05-05T21:12:57.790Z,100.00
2023-05-05T21:15:24.998Z,100.00
2023-05-05T21:17:51.711Z,100.00
2023-05-05T21:20:21.293Z,100.00
2023-05-05T21:22:47.792Z,100.00
2023-05-05T21:25:17.184Z,100.00
2023-05-05T21:27:47.266Z,100.00
2023-05-05T21:30:14.183Z,100.00
2023-05-05T21:32:45.289Z,100.00
2023-05-05T21:35:11.963Z,100.00
2023-05-05T21:37:39.177Z,100.00
2023-05-05T21:40:13.253Z,100.00
2023-05-05T21:42:40.974Z,100.00
2023-05-05T21:45:08.029Z,100.00
2023-05-05T21:47:38.175Z,100.00
2023-05-05T21:50:05.482Z,100.00
2023-05-05T21:52:41.387Z,100.00
2023-05-05T21:55:10.517Z,100.00
2023-05-05T21:57:37.018Z,100.00
2023-05-05T22:00:05.928Z,100.00
2023-05-05T22:02:33.589Z,100.00
2023-05-05T22:05:00.121Z,100.00
2023-05-05T22:07:26.627Z,100.00
2023-05-05T22:09:53.079Z,100.00
2023-05-05T22:12:19.544Z,100.00
2023-05-05T22:14:46.118Z,100.00
2023-05-05T22:17:12.798Z,100.00
2023-05-05T22:19:42.054Z,100.00
2023-05-05T22:22:14.350Z,100.00
2023-05-05T22:24:44.312Z,100.00
2023-05-05T22:27:10.771Z,100.00
2023-05-05T22:29:37.622Z,100.00
2023-05-05T22:32:04.124Z,100.00
2023-05-05T22:34:30.704Z,100.00
2023-05-05T22:37:00.398Z,100.00
2023-05-05T22:39:27.132Z,100.00
2023-05-05T22:41:57.566Z,100.00
2023-05-05T22:44:27.602Z,100.00
2023-05-05T22:46:54.113Z,100.00
2023-05-05T22:49:21.792Z,100.00
2023-05-05T22:51:48.530Z,100.00
2023-05-05T22:54:15.022Z,100.00
2023-05-05T22:56:41.461Z,100.00
2023-05-05T22:59:10.488Z,100.00
2023-05-05T23:01:37.588Z,100.00
2023-05-05T23:04:04.544Z,100.00
2023-05-05T23:06:32.150Z,100.00
2023-05-05T23:08:58.665Z,100.00
2023-05-05T23:11:26.357Z,100.00
2023-05-05T23:13:53.376Z,100.00
2023-05-05T23:16:19.892Z,100.00
2023-05-05T23:18:46.429Z,100.00
2023-05-05T23:21:12.903Z,100.00
2023-05-05T23:23:42.235Z,100.00
2023-05-05T23:26:13.150Z,100.00
2023-05-05T23:28:42.318Z,100.00
2023-05-05T23:31:09.162Z,100.00
2023-05-05T23:33:35.633Z,100.00
2023-05-05T23:36:02.127Z,100.00
2023-05-05T23:38:28.622Z,100.00
2023-05-05T23:40:58.020Z,100.00
2023-05-05T23:43:24.804Z,100.00
2023-05-05T23:45:51.547Z,100.00
2023-05-05T23:48:18.030Z,100.00
2023-05-05T23:50:44.470Z,100.00
2023-05-05T23:53:10.990Z,100.00
2023-05-05T23:55:40.052Z,100.00
2023-05-05T23:58:06.585Z,100.00
